Ana Sayfa
METAR-TAF:

METAR-TAF

Havaalanları :

Sonora Municipal Airport

Sonora, Teksas, Amerika Birleşik Devletleri

Enlem: 30-35-08N, Boylam: 100-38-54W, yükseklik: 652 m

Güncel hava durumu gözlemi

Rapor saat 04:55 UTC de 16 dakika önce yapıldı.
Sakin rüzgar
Sıcaklık 28°C
Nem 58%
Basınç 1017 hPa
Görüş mesafesi: 16.1 km
Açık gökyüzü

METAR: KSOA 160455Z AUTO 00000KT 10SM CLR 28/19 A3003 RMK AO2

Saat: 00:11 (05:11 UTC)

Tahmin

Rapor saat 23:20 UTC de 5 saat ve 51 dakika önce yapıldı.
Ayın 16'si saat 00 UTC'den ayın 16'si saat 24 UTC'ye kadar geçerli Tahmin
Rüzgar güneydoğudan 8 kt
Görüş mesafesi: 10 km
6000 ft yükseklikte parçalı çok bulutlu
Civarda sağanaklar
Ayın 16'si saat 0100 UTC'den
Rüzgar güney/güneydoğudan 6 kt
Görüş mesafesi: 10 km
Açık gökyüzü
Ayın 16'si saat 1500 UTC'den
Rüzgar güneydan 10 kt
Görüş mesafesi: 10 km
Açık gökyüzü

TAF: KSOA 152320Z 1600/1624 14008KT P6SM VCSH BKN060 FM160100 16006KT P6SM SKC FM161500 18010KT P6SM SKC

4.000'den fazla havaalanı için hava durumu gözlemleri ve tahminleri (METAR ve TAF raporları).

Kullanılabilir istasyonlar harita üzerinde sarı ve kırmızı noktalarla gösterilir.

İstasyonun adını görmek için fareyi noktanın üzerinde gezdirin.

Sonrasında hava gözlem ve tahminlerini görmek için tıklayın.

Haritayı değiştirmek için: yaklaştırmak için siyah artı işaretli yeşil düğmeye ve uzaklaştırmak için de eksi işaretli düğmeye hızla tıklayın; bitişik haritalar için yeşil okları kullanın.


METAR-TAF: